Time,TemperatureF,DewpointF,PressureIn,WindDirection,WindDirectionDegrees,WindSpeedMPH,WindSpeedGustMPH,Humidity,HourlyPrecipIn,Conditions,Clouds,dailyrainin,SoftwareType,DateUTC
2013-03-08 00:02:00,38.5,28.9,30.20,WSW,248,0.0,0.0,68,0.00,,,0.00,WeatherDisplay:10.37,2013-03-08 06:02:00,
2013-03-08 00:07:00,38.4,29.1,30.20,WSW,251,1.1,0.0,69,0.00,,,0.00,WeatherDisplay:10.37,2013-03-08 06:07:00,
2013-03-08 00:12:00,38.3,29.0,30.20,WSW,251,0.0,0.0,69,0.00,,,0.00,WeatherDisplay:10.37,2013-03-08 06:12:00,
2013-03-08 00:17:00,38.3,29.0,30.20,WSW,253,0.0,0.0,69,0.00,,,0.00,WeatherDisplay:10.37,2013-03-08 06:17:00,
2013-03-08 00:22:00,38.2,28.9,30.20,WSW,253,1.1,0.0,69,0.00,,,0.00,WeatherDisplay:10.37,2013-03-08 06:22:00,
2013-03-08 00:27:00,38.2,28.9,30.20,West,280,0.0,0.0,69,0.00,,,0.00,WeatherDisplay:10.37,2013-03-08 06:27:00,
2013-03-08 00:32:00,38.2,28.9,30.20,West,280,0.0,0.0,69,0.00,,,0.00,WeatherDisplay:10.37,2013-03-08 06:32:00,
2013-03-08 00:37:00,38.1,28.8,30.20,WNW,283,0.0,0.0,69,0.00,,,0.00,WeatherDisplay:10.37,2013-03-08 06:37:00,
2013-03-08 00:42:00,38.1,29.2,30.20,WNW,284,0.0,0.0,70,0.00,,,0.00,WeatherDisplay:10.37,2013-03-08 06:42:00,
2013-03-08 00:47:00,38.1,29.2,30.20,WNW,284,1.1,1.1,70,0.00,,,0.00,WeatherDisplay:10.37,2013-03-08 06:47:00,
2013-03-08 00:52:00,38.1,28.8,30.20,WNW,284,0.0,0.0,69,0.00,,,0.00,WeatherDisplay:10.37,2013-03-08 06:52:00,
2013-03-08 00:57:00,38.2,28.9,30.21,West,281,1.1,0.0,69,0.00,,,0.00,WeatherDisplay:10.37,2013-03-08 06:57:00,
2013-03-08 01:02:00,38.2,28.9,30.20,WNW,282,0.0,0.0,69,0.00,,,0.00,WeatherDisplay:10.37,2013-03-08 07:02:00,
2013-03-08 01:07:00,38.2,28.9,30.21,WNW,283,1.1,1.1,69,0.00,,,0.00,WeatherDisplay:10.37,2013-03-08 07:07:00,
2013-03-08 01:12:00,38.2,28.9,30.21,WNW,283,1.1,0.0,69,0.00,,,0.00,WeatherDisplay:10.37,2013-03-08 07:12:00,
2013-03-08 01:17:00,38.3,29.0,30.21,WNW,283,0.0,0.0,69,0.00,,,0.00,WeatherDisplay:10.37,2013-03-08 07:17:00,
2013-03-08 01:22:00,38.4,29.1,30.21,WNW,283,0.0,0.0,69,0.00,,,0.00,WeatherDisplay:10.37,2013-03-08 07:22:00,
2013-03-08 01:27:00,38.5,28.9,30.21,WNW,283,0.0,0.0,68,0.00,,,0.00,WeatherDisplay:10.37,2013-03-08 07:27:00,
2013-03-08 01:32:00,38.6,28.9,30.21,WNW,283,0.0,0.0,68,0.00,,,0.00,WeatherDisplay:10.37,2013-03-08 07:32:00,
2013-03-08 01:37:00,38.7,29.0,30.21,WNW,285,0.0,0.0,68,0.00,,,0.00,WeatherDisplay:10.37,2013-03-08 07:37:00,
2013-03-08 01:42:00,38.8,29.1,30.21,WNW,287,0.0,0.0,68,0.00,,,0.00,WeatherDisplay:10.37,2013-03-08 07:42:00,
2013-03-08 01:47:00,38.9,28.9,30.21,WNW,287,0.0,0.0,67,0.00,,,0.00,WeatherDisplay:10.37,2013-03-08 07:47:00,
2013-03-08 01:52:00,38.9,28.9,30.21,WNW,287,1.1,1.1,67,0.00,,,0.00,WeatherDisplay:10.37,2013-03-08 07:52:00,
2013-03-08 01:57:00,39.0,29.0,30.21,WNW,287,0.0,0.0,67,0.00,,,0.00,WeatherDisplay:10.37,2013-03-08 07:57:00,
2013-03-08 02:02:00,39.0,29.0,30.20,WNW,287,0.0,0.0,67,0.00,,,0.00,WeatherDisplay:10.37,2013-03-08 08:02:00,
2013-03-08 02:07:00,39.0,29.0,30.21,WNW,287,1.1,0.0,67,0.00,,,0.00,WeatherDisplay:10.37,2013-03-08 08:07:00,
2013-03-08 02:12:00,38.9,28.9,30.20,WNW,287,0.0,0.0,67,0.00,,,0.00,WeatherDisplay:10.37,2013-03-08 08:12:00,
2013-03-08 02:17:00,38.9,28.9,30.20,WNW,287,0.0,0.0,67,0.00,,,0.00,WeatherDisplay:10.37,2013-03-08 08:17:00,
2013-03-08 02:22:00,38.9,28.9,30.20,WNW,287,0.0,0.0,67,0.00,,,0.00,WeatherDisplay:10.37,2013-03-08 08:22:00,
2013-03-08 02:27:00,38.9,28.9,30.20,NW,319,3.5,3.5,67,0.00,,,0.00,WeatherDisplay:10.37,2013-03-08 08:27:00,
2013-03-08 02:32:00,38.9,28.9,30.20,NW,319,1.1,0.0,67,0.00,,,0.00,WeatherDisplay:10.37,2013-03-08 08:32:00,
2013-03-08 02:37:00,38.9,28.9,30.20,NW,319,1.1,0.0,67,0.00,,,0.00,WeatherDisplay:10.37,2013-03-08 08:37:00,
2013-03-08 02:42:00,39.0,29.3,30.20,NW,319,0.0,0.0,68,0.00,,,0.00,WeatherDisplay:10.37,2013-03-08 08:42:00,
2013-03-08 02:47:00,39.1,29.4,30.20,NW,320,0.0,0.0,68,0.00,,,0.00,WeatherDisplay:10.37,2013-03-08 08:47:00,
2013-03-08 02:52:00,39.2,29.5,30.20,NW,320,0.0,0.0,68,0.00,,,0.00,WeatherDisplay:10.37,2013-03-08 08:52:00,
2013-03-08 02:57:00,39.3,29.3,30.20,SW,227,0.0,0.0,67,0.00,,,0.00,WeatherDisplay:10.37,2013-03-08 08:57:00,
2013-03-08 03:02:00,39.4,29.3,30.20,NW,313,1.1,1.1,67,0.00,,,0.00,WeatherDisplay:10.37,2013-03-08 09:02:00,
2013-03-08 03:07:00,39.5,29.4,30.20,WSW,252,2.3,2.3,67,0.00,,,0.00,WeatherDisplay:10.37,2013-03-08 09:07:00,
2013-03-08 03:12:00,39.6,29.5,30.20,WSW,252,0.0,0.0,67,0.00,,,0.00,WeatherDisplay:10.37,2013-03-08 09:12:00,
2013-03-08 03:17:00,39.7,29.6,30.19,NW,307,1.1,0.0,67,0.00,,,0.00,WeatherDisplay:10.37,2013-03-08 09:17:00,
2013-03-08 03:22:00,39.8,29.7,30.19,NW,311,1.1,0.0,67,0.00,,,0.00,WeatherDisplay:10.37,2013-03-08 09:22:00,
2013-03-08 03:27:00,40.0,29.9,30.19,NW,311,1.1,1.1,67,0.00,,,0.00,WeatherDisplay:10.37,2013-03-08 09:27:00,
2013-03-08 03:32:00,40.0,29.9,30.19,WNW,290,1.1,1.1,67,0.00,,,0.00,WeatherDisplay:10.37,2013-03-08 09:32:00,
2013-03-08 03:37:00,40.1,30.0,30.19,NW,311,1.1,1.1,67,0.00,,,0.00,WeatherDisplay:10.37,2013-03-08 09:37:00,
2013-03-08 03:42:00,40.1,30.0,30.19,NW,312,0.0,0.0,67,0.00,,,0.00,WeatherDisplay:10.37,2013-03-08 09:42:00,
2013-03-08 03:47:00,40.2,30.1,30.18,NW,319,0.0,0.0,67,0.00,,,0.00,WeatherDisplay:10.37,2013-03-08 09:47:00,
2013-03-08 03:52:00,40.2,30.1,30.19,NNW,344,1.1,1.1,67,0.00,,,0.00,WeatherDisplay:10.37,2013-03-08 09:52:00,
2013-03-08 03:57:00,40.2,30.1,30.19,WNW,288,1.1,0.0,67,0.00,,,0.00,WeatherDisplay:10.37,2013-03-08 09:57:00,
2013-03-08 04:02:00,40.2,30.1,30.18,WNW,300,0.0,0.0,67,0.00,,,0.00,WeatherDisplay:10.37,2013-03-08 10:02:00,
2013-03-08 04:07:00,40.2,30.1,30.19,WNW,300,1.1,0.0,67,0.00,,,0.00,WeatherDisplay:10.37,2013-03-08 10:07:00,
2013-03-08 04:12:00,40.2,30.1,30.19,WSW,240,1.1,1.1,67,0.00,,,0.00,WeatherDisplay:10.37,2013-03-08 10:12:00,
2013-03-08 04:17:00,40.2,30.1,30.18,West,280,1.1,1.1,67,0.00,,,0.00,WeatherDisplay:10.37,2013-03-08 10:17:00,
2013-03-08 04:22:00,40.2,30.1,30.18,West,281,0.0,0.0,67,0.00,,,0.00,WeatherDisplay:10.37,2013-03-08 10:22:00,
2013-03-08 04:27:00,40.2,30.5,30.17,West,278,0.0,0.0,68,0.00,,,0.00,WeatherDisplay:10.37,2013-03-08 10:27:00,
2013-03-08 04:32:00,40.2,30.5,30.17,West,278,0.0,0.0,68,0.00,,,0.00,WeatherDisplay:10.37,2013-03-08 10:32:00,
2013-03-08 04:37:00,40.1,30.4,30.18,West,278,0.0,0.2,68,0.00,,,0.00,WeatherDisplay:10.37,2013-03-08 10:37:00,
2013-03-08 04:42:00,40.1,30.4,30.18,West,279,0.0,0.0,68,0.00,,,0.00,WeatherDisplay:10.37,2013-03-08 10:42:00,
2013-03-08 04:47:00,40.2,30.5,30.18,WSW,253,2.3,2.3,68,0.00,,,0.00,WeatherDisplay:10.37,2013-03-08 10:47:00,
2013-03-08 04:52:00,40.3,30.6,30.17,NNE,15,3.0,3.0,68,0.00,,,0.00,WeatherDisplay:10.37,2013-03-08 10:52:00,
2013-03-08 04:57:00,40.4,30.7,30.17,WNW,298,0.0,0.0,68,0.00,,,0.00,WeatherDisplay:10.37,2013-03-08 10:57:00,
2013-03-08 05:02:00,40.5,30.8,30.17,NNW,328,2.3,2.3,68,0.00,,,0.00,WeatherDisplay:10.37,2013-03-08 11:02:00,
2013-03-08 05:07:00,40.5,30.8,30.17,West,271,1.1,0.0,68,0.00,,,0.00,WeatherDisplay:10.37,2013-03-08 11:07:00,
2013-03-08 05:12:00,40.6,31.2,30.17,West,276,0.0,0.0,69,0.00,,,0.00,WeatherDisplay:10.37,2013-03-08 11:12:00,
2013-03-08 05:17:00,40.6,31.2,30.18,WNW,297,2.3,2.3,69,0.00,,,0.00,WeatherDisplay:10.37,2013-03-08 11:17:00,
2013-03-08 05:22:00,40.7,31.0,30.18,WSW,254,1.1,1.1,68,0.00,,,0.00,WeatherDisplay:10.37,2013-03-08 11:22:00,
2013-03-08 05:27:00,40.8,31.1,30.18,West,280,3.0,3.0,68,0.00,,,0.00,WeatherDisplay:10.37,2013-03-08 11:27:00,
2013-03-08 05:32:00,40.8,31.4,30.18,WNW,284,2.3,2.3,69,0.00,,,0.00,WeatherDisplay:10.37,2013-03-08 11:32:00,
2013-03-08 05:37:00,40.8,31.4,30.18,West,272,0.0,0.1,69,0.00,,,0.00,WeatherDisplay:10.37,2013-03-08 11:37:00,
2013-03-08 05:42:00,40.9,31.5,30.19,South,182,2.3,2.3,69,0.00,,,0.00,WeatherDisplay:10.37,2013-03-08 11:42:00,
2013-03-08 05:48:00,40.9,31.5,30.19,SSW,196,2.3,2.3,69,0.00,,,0.00,WeatherDisplay:10.37,2013-03-08 11:48:00,
2013-03-08 05:53:00,40.9,31.5,30.19,SE,135,3.5,3.5,69,0.00,,,0.00,WeatherDisplay:10.37,2013-03-08 11:53:00,
2013-03-08 05:58:00,41.1,31.7,30.19,South,190,2.3,2.3,69,0.00,,,0.00,WeatherDisplay:10.37,2013-03-08 11:58:00,
2013-03-08 06:03:00,41.1,31.7,30.19,NW,309,2.3,2.3,69,0.00,,,0.00,WeatherDisplay:10.37,2013-03-08 12:03:00,
2013-03-08 06:08:00,41.1,31.7,30.19,SSE,159,3.5,3.5,69,0.00,,,0.00,WeatherDisplay:10.37,2013-03-08 12:08:00,
2013-03-08 06:13:00,41.2,31.8,30.19,West,267,5.8,5.8,69,0.00,CLR,,0.00,WeatherDisplay:10.37,2013-03-08 12:13:00,
2013-03-08 06:18:00,41.2,31.8,30.18,WSW,252,2.3,2.3,69,0.00,CLR,,0.00,WeatherDisplay:10.37,2013-03-08 12:18:00,
2013-03-08 06:23:00,41.2,31.8,30.18,WSW,238,2.3,2.4,69,0.00,CLR,,0.00,WeatherDisplay:10.37,2013-03-08 12:23:00,
2013-03-08 06:28:00,41.2,31.8,30.18,West,265,2.3,2.3,69,0.00,CLR,,0.00,WeatherDisplay:10.37,2013-03-08 12:28:00,
2013-03-08 06:33:00,41.2,31.8,30.18,South,169,3.5,3.5,69,0.00,CLR,,0.00,WeatherDisplay:10.37,2013-03-08 12:33:00,
2013-03-08 06:38:00,41.2,31.8,30.18,NNW,332,3.5,3.5,69,0.00,CLR,,0.00,WeatherDisplay:10.37,2013-03-08 12:38:00,
2013-03-08 06:43:00,41.2,31.8,30.18,WSW,247,3.5,3.5,69,0.00,CLR,,0.00,WeatherDisplay:10.37,2013-03-08 12:43:00,
2013-03-08 06:48:00,41.2,31.8,30.18,NNW,333,3.5,3.5,69,0.00,CLR,,0.00,WeatherDisplay:10.37,2013-03-08 12:48:00,
2013-03-08 06:53:00,41.3,31.9,30.18,NNE,20,8.1,8.1,69,0.00,CLR,,0.00,WeatherDisplay:10.37,2013-03-08 12:53:00,
2013-03-08 06:58:00,41.4,32.0,30.18,SSW,208,3.5,3.5,69,0.00,CLR,,0.00,WeatherDisplay:10.37,2013-03-08 12:58:00,
2013-03-08 07:03:00,41.4,32.0,30.18,WNW,302,3.5,3.5,69,0.00,CLR,,0.00,WeatherDisplay:10.37,2013-03-08 13:03:00,
2013-03-08 07:08:00,41.5,32.1,30.18,NNW,331,3.5,3.5,69,0.00,CLR,,0.00,WeatherDisplay:10.37,2013-03-08 13:08:00,
2013-03-08 07:13:00,41.6,32.2,30.18,ENE,67,3.5,3.5,69,0.00,CLR,,0.00,WeatherDisplay:10.37,2013-03-08 13:13:00,
2013-03-08 07:18:00,41.7,32.3,30.18,ESE,105,5.8,5.8,69,0.00,CLR,,0.00,WeatherDisplay:10.37,2013-03-08 13:18:00,
2013-03-08 07:23:00,41.8,32.4,30.18,SSW,206,3.5,3.5,69,0.00,CLR,,0.00,WeatherDisplay:10.37,2013-03-08 13:23:00,
2013-03-08 07:28:00,41.8,32.4,30.18,SW,219,3.5,3.5,69,0.00,CLR,,0.00,WeatherDisplay:10.37,2013-03-08 13:28:00,
2013-03-08 07:33:00,41.8,32.4,30.18,NNE,22,3.5,3.5,69,0.00,CLR,,0.00,WeatherDisplay:10.37,2013-03-08 13:33:00,
2013-03-08 07:38:00,42.0,32.2,30.18,SSW,203,2.3,2.3,68,0.00,CLR,,0.00,WeatherDisplay:10.37,2013-03-08 13:38:00,
2013-03-08 07:43:00,42.2,32.4,30.17,South,191,3.5,3.5,68,0.00,CLR,,0.00,WeatherDisplay:10.37,2013-03-08 13:43:00,
2013-03-08 07:48:00,42.4,32.6,30.18,WNW,301,5.8,5.8,68,0.00,CLR,,0.00,WeatherDisplay:10.37,2013-03-08 13:48:00,
2013-03-08 07:53:00,42.5,32.3,30.18,SSE,158,3.5,3.5,67,0.00,CLR,,0.00,WeatherDisplay:10.37,2013-03-08 13:53:00,
2013-03-08 07:58:00,42.7,32.5,30.18,South,187,2.3,2.3,67,0.00,CLR,,0.00,WeatherDisplay:10.37,2013-03-08 13:58:00,
2013-03-08 08:03:00,42.9,32.7,30.18,SW,225,3.5,3.5,67,0.00,CLR,,0.00,WeatherDisplay:10.37,2013-03-08 14:03:00,
2013-03-08 08:08:00,43.1,32.9,30.18,West,267,2.3,2.3,67,0.00,CLR,,0.00,WeatherDisplay:10.37,2013-03-08 14:08:00,
2013-03-08 08:13:00,43.2,32.6,30.18,West,264,2.3,2.3,66,0.00,CLR,,0.00,WeatherDisplay:10.37,2013-03-08 14:13:00,
2013-03-08 08:18:00,43.4,32.8,30.18,SW,236,2.3,2.3,66,0.00,CLR,,0.00,WeatherDisplay:10.37,2013-03-08 14:18:00,
2013-03-08 08:23:00,43.5,32.9,30.19,West,279,4.0,4.0,66,0.00,CLR,,0.00,WeatherDisplay:10.37,2013-03-08 14:23:00,
2013-03-08 08:28:00,43.6,33.0,30.19,SSW,196,4.0,4.0,66,0.00,CLR,,0.00,WeatherDisplay:10.37,2013-03-08 14:28:00,
2013-03-08 08:33:00,43.8,33.2,30.19,East,96,3.5,3.5,66,0.00,CLR,,0.00,WeatherDisplay:10.37,2013-03-08 14:33:00,
2013-03-08 08:38:00,44.1,33.1,30.19,NE,50,1.1,1.1,65,0.00,CLR,,0.00,WeatherDisplay:10.37,2013-03-08 14:38:00,
2013-03-08 08:43:00,44.4,33.4,30.19,WSW,238,3.5,3.5,65,0.00,CLR,,0.00,WeatherDisplay:10.37,2013-03-08 14:43:00,
2013-03-08 08:48:00,44.8,33.4,30.18,West,278,2.3,2.3,64,0.00,CLR,,0.00,WeatherDisplay:10.37,2013-03-08 14:48:00,
2013-03-08 08:53:00,45.1,33.2,30.18,South,190,2.3,2.3,63,0.00,CLR,,0.00,WeatherDisplay:10.37,2013-03-08 14:53:00,
2013-03-08 08:58:00,45.2,33.3,30.18,West,271,3.5,3.5,63,0.00,CLR,,0.00,WeatherDisplay:10.37,2013-03-08 14:58:00,
2013-03-08 09:03:00,45.2,33.3,30.17,WNW,291,2.0,2.0,63,0.00,CLR,,0.00,WeatherDisplay:10.37,2013-03-08 15:03:00,
2013-03-08 09:08:00,45.3,33.0,30.17,West,259,3.5,3.5,62,0.00,CLR,,0.00,WeatherDisplay:10.37,2013-03-08 15:08:00,
2013-03-08 09:13:00,45.5,33.2,30.17,SW,223,3.5,3.5,62,0.00,CLR,,0.00,WeatherDisplay:10.37,2013-03-08 15:13:00,
2013-03-08 09:18:00,45.5,33.2,30.17,NNW,345,4.6,4.6,62,0.00,CLR,,0.00,WeatherDisplay:10.37,2013-03-08 15:18:00,
2013-03-08 09:23:00,45.6,33.3,30.17,SSW,192,3.5,3.5,62,0.00,CLR,,0.00,WeatherDisplay:10.37,2013-03-08 15:23:00,
2013-03-08 09:28:00,45.8,33.5,30.16,WSW,247,1.1,1.2,62,0.00,CLR,,0.00,WeatherDisplay:10.37,2013-03-08 15:28:00,
2013-03-08 09:33:00,46.4,33.7,30.17,West,279,3.5,3.5,61,0.00,CLR,,0.00,WeatherDisplay:10.37,2013-03-08 15:33:00,
2013-03-08 09:38:00,47.2,34.0,30.16,SSW,205,1.1,1.1,60,0.00,CLR,,0.00,WeatherDisplay:10.37,2013-03-08 15:38:00,
2013-03-08 09:43:00,47.5,33.9,30.16,SW,235,1.1,0.0,59,0.00,CLR,,0.00,WeatherDisplay:10.37,2013-03-08 15:43:00,
2013-03-08 09:48:00,47.7,33.6,30.16,WNW,288,3.5,3.5,58,0.00,CLR,,0.00,WeatherDisplay:10.37,2013-03-08 15:48:00,
2013-03-08 09:53:00,48.4,33.9,30.17,WSW,254,4.6,4.6,57,0.00,CLR,,0.00,WeatherDisplay:10.37,2013-03-08 15:53:00,
2013-03-08 09:58:00,49.0,34.4,30.17,WNW,286,3.5,3.5,57,0.00,CLR,,0.00,WeatherDisplay:10.37,2013-03-08 15:58:00,
2013-03-08 10:03:00,49.5,34.4,30.17,SW,227,1.1,1.1,56,0.00,CLR,,0.00,WeatherDisplay:10.37,2013-03-08 16:03:00,
2013-03-08 10:08:00,49.9,34.4,30.17,SSW,210,5.0,5.0,55,0.00,CLR,,0.00,WeatherDisplay:10.37,2013-03-08 16:08:00,
2013-03-08 10:13:00,50.0,34.5,30.17,NW,313,2.3,2.3,55,0.00,CLR,,0.00,WeatherDisplay:10.37,2013-03-08 16:13:00,
2013-03-08 10:18:00,49.5,34.0,30.17,WNW,294,3.5,3.5,55,0.00,CLR,,0.00,WeatherDisplay:10.37,2013-03-08 16:18:00,
2013-03-08 10:23:00,50.2,34.2,30.17,West,269,3.5,3.5,54,0.00,CLR,,0.00,WeatherDisplay:10.37,2013-03-08 16:23:00,
2013-03-08 10:28:00,50.7,34.6,30.17,South,182,5.0,5.0,54,0.00,CLR,,0.00,WeatherDisplay:10.37,2013-03-08 16:28:00,
2013-03-08 10:33:00,51.0,34.5,30.16,NW,318,3.5,3.5,53,0.00,CLR,,0.00,WeatherDisplay:10.37,2013-03-08 16:33:00,
2013-03-08 10:38:00,51.9,34.8,30.16,SSW,206,7.0,7.0,52,0.00,CLR,,0.00,WeatherDisplay:10.37,2013-03-08 16:38:00,
2013-03-08 10:43:00,52.0,34.4,30.16,SW,218,3.5,3.5,51,0.00,CLR,,0.00,WeatherDisplay:10.37,2013-03-08 16:43:00,
2013-03-08 10:48:00,51.9,35.3,30.16,South,180,3.5,3.5,53,0.00,CLR,,0.00,WeatherDisplay:10.37,2013-03-08 16:48:00,
2013-03-08 10:54:00,52.2,35.1,30.16,South,175,3.5,3.5,52,0.00,CLR,,0.00,WeatherDisplay:10.37,2013-03-08 16:54:00,
2013-03-08 10:59:00,53.2,35.5,30.15,WSW,250,4.6,4.6,51,0.00,CLR,,0.00,WeatherDisplay:10.37,2013-03-08 16:59:00,
2013-03-08 11:04:00,53.7,35.0,30.15,SSE,159,4.6,4.6,49,0.00,CLR,,0.00,WeatherDisplay:10.37,2013-03-08 17:04:00,
2013-03-08 11:09:00,54.3,35.5,30.15,WNW,300,3.5,3.5,49,0.00,CLR,,0.00,WeatherDisplay:10.37,2013-03-08 17:09:00,
2013-03-08 11:14:00,55.1,35.7,30.15,North,5,3.5,3.5,48,0.00,CLR,,0.00,WeatherDisplay:10.37,2013-03-08 17:14:00,
2013-03-08 11:19:00,55.3,35.9,30.15,East,90,3.5,3.5,48,0.00,CLR,,0.00,WeatherDisplay:10.37,2013-03-08 17:19:00,
2013-03-08 11:24:00,55.3,35.4,30.15,SSW,198,4.6,4.6,47,0.00,CLR,,0.00,WeatherDisplay:10.37,2013-03-08 17:24:00,
2013-03-08 11:29:00,55.7,36.3,30.14,West,268,3.5,3.5,48,0.00,CLR,,0.00,WeatherDisplay:10.37,2013-03-08 17:29:00,
2013-03-08 11:34:00,56.2,36.2,30.15,West,269,3.5,3.5,47,0.00,CLR,,0.00,WeatherDisplay:10.37,2013-03-08 17:34:00,
2013-03-08 11:39:00,56.2,36.2,30.15,South,186,3.5,3.5,47,0.00,CLR,,0.00,WeatherDisplay:10.37,2013-03-08 17:39:00,
2013-03-08 11:44:00,56.6,36.6,30.15,South,169,3.5,3.5,47,0.00,CLR,,0.00,WeatherDisplay:10.37,2013-03-08 17:44:00,
2013-03-08 11:49:00,56.1,36.7,30.15,South,186,5.0,5.0,48,0.00,CLR,,0.00,WeatherDisplay:10.37,2013-03-08 17:49:00,
2013-03-08 11:54:00,56.6,36.6,30.15,SSE,167,3.5,3.5,47,0.00,CLR,,0.00,WeatherDisplay:10.37,2013-03-08 17:54:00,
2013-03-08 11:59:00,56.2,36.8,30.14,South,180,5.8,5.8,48,0.00,CLR,,0.00,WeatherDisplay:10.37,2013-03-08 17:59:00,
2013-03-08 12:04:00,56.2,37.3,30.14,SSE,163,2.3,2.3,49,0.00,CLR,,0.00,WeatherDisplay:10.37,2013-03-08 18:04:00,
2013-03-08 12:09:00,55.6,37.2,30.14,South,187,3.5,3.5,50,0.00,CLR,,0.00,WeatherDisplay:10.37,2013-03-08 18:09:00,
2013-03-08 12:14:00,56.2,37.8,30.15,SSW,207,3.0,3.0,50,0.00,CLR,,0.00,WeatherDisplay:10.37,2013-03-08 18:14:00,
2013-03-08 12:19:00,56.5,38.1,30.14,SSW,195,2.3,2.3,50,0.00,CLR,,0.00,WeatherDisplay:10.37,2013-03-08 18:19:00,
2013-03-08 12:24:00,57.0,38.0,30.14,WSW,247,3.5,3.5,49,0.00,CLR,,0.00,WeatherDisplay:10.37,2013-03-08 18:24:00,
2013-03-08 12:29:00,57.3,38.3,30.15,South,179,3.5,3.5,49,0.00,CLR,,0.00,WeatherDisplay:10.37,2013-03-08 18:29:00,
2013-03-08 12:34:00,57.2,38.7,30.14,SSW,204,4.6,4.6,50,0.00,CLR,,0.00,WeatherDisplay:10.37,2013-03-08 18:34:00,
2013-03-08 12:39:00,57.5,39.0,30.14,South,176,2.0,2.0,50,0.00,CLR,,0.00,WeatherDisplay:10.37,2013-03-08 18:39:00,
2013-03-08 12:44:00,58.1,39.0,30.14,SSE,164,5.8,5.8,49,0.00,CLR,,0.00,WeatherDisplay:10.37,2013-03-08 18:44:00,
2013-03-08 12:49:00,57.3,39.3,30.14,SSW,202,5.8,5.8,51,0.00,CLR,,0.00,WeatherDisplay:10.37,2013-03-08 18:49:00,
2013-03-08 12:54:00,57.1,39.1,30.13,SE,130,6.9,6.9,51,0.00,CLR,,0.00,WeatherDisplay:10.37,2013-03-08 18:54:00,
2013-03-08 12:59:00,57.0,39.5,30.13,WSW,250,2.3,2.3,52,0.00,CLR,,0.00,WeatherDisplay:10.37,2013-03-08 18:59:00,
2013-03-08 13:04:00,57.1,39.6,30.13,NNE,22,4.6,4.6,52,0.00,CLR,,0.00,WeatherDisplay:10.37,2013-03-08 19:04:00,
2013-03-08 13:09:00,58.0,40.0,30.12,South,176,3.5,3.5,51,0.00,CLR,,0.00,WeatherDisplay:10.37,2013-03-08 19:09:00,
2013-03-08 13:14:00,57.1,39.6,30.12,WSW,237,4.6,4.6,52,0.00,CLR,,0.00,WeatherDisplay:10.37,2013-03-08 19:14:00,
2013-03-08 13:19:00,56.8,39.8,30.11,NNE,15,4.6,4.6,53,0.00,CLR,,0.00,WeatherDisplay:10.37,2013-03-08 19:19:00,
2013-03-08 13:24:00,56.7,39.7,30.11,SE,126,3.5,3.5,53,0.00,CLR,,0.00,WeatherDisplay:10.37,2013-03-08 19:24:00,
2013-03-08 13:29:00,56.6,39.7,30.11,South,188,2.0,2.0,53,0.00,CLR,,0.00,WeatherDisplay:10.37,2013-03-08 19:29:00,
2013-03-08 13:34:00,56.7,39.7,30.10,WNW,298,3.5,3.5,53,0.00,CLR,,0.00,WeatherDisplay:10.37,2013-03-08 19:34:00,
2013-03-08 13:39:00,57.2,40.2,30.10,NNW,343,2.3,2.3,53,0.00,CLR,,0.00,WeatherDisplay:10.37,2013-03-08 19:39:00,
2013-03-08 13:44:00,57.6,40.1,30.10,SSW,194,1.1,0.0,52,0.00,CLR,,0.00,WeatherDisplay:10.37,2013-03-08 19:44:00,
2013-03-08 13:49:00,57.2,39.7,30.10,West,259,2.3,2.3,52,0.00,CLR,,0.00,WeatherDisplay:10.37,2013-03-08 19:49:00,
2013-03-08 13:54:00,56.9,39.4,30.10,WSW,250,3.5,3.5,52,0.00,CLR,,0.00,WeatherDisplay:10.37,2013-03-08 19:54:00,
2013-03-08 13:59:00,56.7,39.3,30.10,South,191,2.3,2.3,52,0.00,CLR,,0.00,WeatherDisplay:10.37,2013-03-08 19:59:00,
2013-03-08 14:04:00,56.4,39.0,30.10,SSW,198,1.1,1.1,52,0.00,CLR,,0.00,WeatherDisplay:10.37,2013-03-08 20:04:00,
2013-03-08 14:09:00,56.4,39.5,30.09,West,276,0.0,0.0,53,0.00,CLR,,0.00,WeatherDisplay:10.37,2013-03-08 20:09:00,
2013-03-08 14:14:00,56.1,39.2,30.09,SW,227,2.3,2.3,53,0.00,CLR,,0.00,WeatherDisplay:10.37,2013-03-08 20:14:00,
2013-03-08 14:19:00,55.9,39.0,30.09,West,259,0.0,0.1,53,0.00,CLR,,0.00,WeatherDisplay:10.37,2013-03-08 20:19:00,
2013-03-08 14:24:00,55.9,39.0,30.09,WNW,298,3.5,3.5,53,0.00,CLR,,0.00,WeatherDisplay:10.37,2013-03-08 20:24:00,
2013-03-08 14:29:00,55.9,39.5,30.09,ENE,73,1.1,1.1,54,0.00,CLR,,0.00,WeatherDisplay:10.37,2013-03-08 20:29:00,
2013-03-08 14:34:00,55.7,39.3,30.09,SSW,198,2.3,2.3,54,0.00,CLR,,0.00,WeatherDisplay:10.37,2013-03-08 20:34:00,
2013-03-08 14:39:00,55.6,39.2,30.09,NNW,343,1.1,1.1,54,0.00,CLR,,0.00,WeatherDisplay:10.37,2013-03-08 20:39:00,
2013-03-08 14:44:00,55.5,39.1,30.09,NNW,348,3.5,3.5,54,0.00,CLR,,0.00,WeatherDisplay:10.37,2013-03-08 20:44:00,
2013-03-08 14:49:00,55.3,38.9,30.09,WNW,301,1.1,1.1,54,0.00,CLR,,0.00,WeatherDisplay:10.37,2013-03-08 20:49:00,
2013-03-08 14:54:00,55.2,38.8,30.08,WSW,246,2.0,2.0,54,0.00,CLR,,0.00,WeatherDisplay:10.37,2013-03-08 20:54:00,
2013-03-08 14:59:00,55.1,39.2,30.08,North,349,1.1,1.1,55,0.00,CLR,,0.00,WeatherDisplay:10.37,2013-03-08 20:59:00,
2013-03-08 15:04:00,55.2,39.3,30.08,East,101,0.0,0.0,55,0.00,CLR,,0.00,WeatherDisplay:10.37,2013-03-08 21:04:00,
2013-03-08 15:09:00,55.0,38.6,30.07,SSW,205,3.5,3.5,54,0.00,CLR,,0.00,WeatherDisplay:10.37,2013-03-08 21:09:00,
2013-03-08 15:14:00,54.8,38.9,30.07,NW,322,2.3,2.3,55,0.00,CLR,,0.00,WeatherDisplay:10.37,2013-03-08 21:14:00,
2013-03-08 15:19:00,54.7,38.8,30.06,WNW,298,1.1,1.1,55,0.00,CLR,,0.00,WeatherDisplay:10.37,2013-03-08 21:19:00,
2013-03-08 15:24:00,54.6,38.7,30.06,ESE,115,1.1,0.0,55,0.00,CLR,,0.00,WeatherDisplay:10.37,2013-03-08 21:24:00,
2013-03-08 15:29:00,54.6,38.7,30.06,NW,309,0.0,0.0,55,0.00,CLR,,0.00,WeatherDisplay:10.37,2013-03-08 21:29:00,
2013-03-08 15:34:00,54.4,38.6,30.05,East,101,2.3,2.3,55,0.00,CLR,,0.00,WeatherDisplay:10.37,2013-03-08 21:34:00,
2013-03-08 15:39:00,54.2,37.9,30.05,NW,320,1.1,1.1,54,0.00,CLR,,0.00,WeatherDisplay:10.37,2013-03-08 21:39:00,
2013-03-08 15:44:00,54.0,37.7,30.05,West,261,3.5,3.5,54,0.00,CLR,,0.00,WeatherDisplay:10.37,2013-03-08 21:44:00,
2013-03-08 15:49:00,53.8,38.0,30.05,NNW,336,4.0,4.0,55,0.00,CLR,,0.00,WeatherDisplay:10.37,2013-03-08 21:49:00,
2013-03-08 15:54:00,53.7,37.9,30.05,NNE,15,1.1,1.1,55,0.00,CLR,,0.00,WeatherDisplay:10.37,2013-03-08 21:54:00,
2013-03-08 15:59:00,53.6,37.8,30.05,SSW,202,1.1,1.1,55,0.00,CLR,,0.00,WeatherDisplay:10.37,2013-03-08 21:59:00,
2013-03-08 16:04:00,53.6,37.8,30.05,NW,319,0.0,0.3,55,0.00,CLR,,0.00,WeatherDisplay:10.37,2013-03-08 22:04:00,
2013-03-08 16:09:00,53.5,37.7,30.05,SSW,212,3.0,3.0,55,0.00,CLR,,0.00,WeatherDisplay:10.37,2013-03-08 22:09:00,
2013-03-08 16:14:00,53.3,37.5,30.05,NE,43,2.3,2.3,55,0.00,CLR,,0.00,WeatherDisplay:10.37,2013-03-08 22:14:00,
2013-03-08 16:19:00,53.2,37.4,30.05,SW,234,2.3,2.3,55,0.00,CLR,,0.00,WeatherDisplay:10.37,2013-03-08 22:19:00,
2013-03-08 16:24:00,53.2,37.4,30.04,WSW,244,1.1,1.1,55,0.00,CLR,,0.00,WeatherDisplay:10.37,2013-03-08 22:24:00,
2013-03-08 16:30:00,53.1,37.3,30.04,WNW,289,3.0,3.0,55,0.00,CLR,,0.00,WeatherDisplay:10.37,2013-03-08 22:30:00,
2013-03-08 16:35:00,53.2,37.4,30.04,WSW,250,3.5,3.5,55,0.00,CLR,,0.00,WeatherDisplay:10.37,2013-03-08 22:35:00,
2013-03-08 16:40:00,53.3,37.5,30.04,NNW,340,3.5,3.5,55,0.00,CLR,,0.00,WeatherDisplay:10.37,2013-03-08 22:40:00,
2013-03-08 16:45:00,53.4,37.2,30.04,ENE,64,1.1,1.1,54,0.00,CLR,,0.00,WeatherDisplay:10.37,2013-03-08 22:45:00,
2013-03-08 16:50:00,53.5,37.7,30.03,SW,221,1.1,1.1,55,0.00,CLR,,0.00,WeatherDisplay:10.37,2013-03-08 22:50:00,
2013-03-08 16:55:00,53.5,37.3,30.03,WNW,303,6.9,6.9,54,0.00,CLR,,0.00,WeatherDisplay:10.37,2013-03-08 22:55:00,
2013-03-08 17:00:00,53.4,37.2,30.03,NW,310,3.5,3.5,54,0.00,CLR,,0.00,WeatherDisplay:10.37,2013-03-08 23:00:00,
2013-03-08 17:05:00,53.2,37.0,30.03,West,265,1.0,5.0,54,0.00,CLR,,0.00,WeatherDisplay:10.37,2013-03-08 23:05:00,
2013-03-08 17:10:00,53.1,36.9,30.03,West,270,0.0,3.0,54,0.00,CLR,,0.00,WeatherDisplay:10.37,2013-03-08 23:10:00,
2013-03-08 17:15:00,52.9,37.1,30.03,NNW,338,2.0,6.0,55,0.00,CLR,,0.00,WeatherDisplay:10.37,2013-03-08 23:15:00,
2013-03-08 17:20:00,52.7,37.0,30.03,SSW,202,2.3,2.3,55,0.00,CLR,,0.00,WeatherDisplay:10.37,2013-03-08 23:20:00,
2013-03-08 17:25:00,52.6,36.9,30.03,SSW,195,1.0,5.0,55,0.00,CLR,,0.00,WeatherDisplay:10.37,2013-03-08 23:25:00,
2013-03-08 17:30:00,52.5,37.2,30.02,NNW,328,2.3,2.3,56,0.00,CLR,,0.00,WeatherDisplay:10.37,2013-03-08 23:30:00,
2013-03-08 17:35:00,52.4,37.2,30.03,NNW,346,3.5,3.5,56,0.00,CLR,,0.00,WeatherDisplay:10.37,2013-03-08 23:35:00,
2013-03-08 17:40:00,52.2,37.0,30.03,SW,227,1.0,3.0,56,0.00,CLR,,0.00,WeatherDisplay:10.37,2013-03-08 23:40:00,
2013-03-08 17:45:00,52.1,36.9,30.03,West,269,1.0,5.0,56,0.00,CLR,,0.00,WeatherDisplay:10.37,2013-03-08 23:45:00,
2013-03-08 17:50:00,51.9,36.7,30.03,West,265,4.6,4.6,56,0.00,CLR,,0.00,WeatherDisplay:10.37,2013-03-08 23:50:00,
2013-03-08 17:55:00,51.7,36.5,30.03,North,5,3.5,3.5,56,0.00,CLR,,0.00,WeatherDisplay:10.37,2013-03-08 23:55:00,
2013-03-08 18:00:00,51.7,36.9,30.03,NNW,331,3.5,3.5,57,0.00,CLR,,0.00,WeatherDisplay:10.37,2013-03-09 00:00:00,
2013-03-08 18:05:00,51.5,36.8,30.02,SSW,211,5.8,5.8,57,0.00,CLR,,0.00,WeatherDisplay:10.37,2013-03-09 00:05:00,
2013-03-08 18:10:00,51.5,36.8,30.03,West,279,2.3,2.3,57,0.00,CLR,,0.00,WeatherDisplay:10.37,2013-03-09 00:10:00,
2013-03-08 18:15:00,51.4,36.7,30.03,WSW,245,1.1,1.1,57,0.00,CLR,,0.00,WeatherDisplay:10.37,2013-03-09 00:15:00,
2013-03-08 18:20:00,51.4,37.1,30.03,West,280,1.0,4.0,58,0.00,CLR,,0.00,WeatherDisplay:10.37,2013-03-09 00:20:00,
2013-03-08 18:25:00,51.3,37.0,30.03,West,281,2.3,2.3,58,0.00,CLR,,0.00,WeatherDisplay:10.37,2013-03-09 00:25:00,
2013-03-08 18:30:00,51.2,36.9,30.03,WNW,300,0.0,4.0,58,0.00,CLR,,0.00,WeatherDisplay:10.37,2013-03-09 00:30:00,
2013-03-08 18:35:00,51.2,36.9,30.03,NNW,332,0.0,2.0,58,0.00,CLR,,0.00,WeatherDisplay:10.37,2013-03-09 00:35:00,
2013-03-08 18:40:00,51.1,36.8,30.03,WNW,294,3.5,3.5,58,0.00,CLR,,0.00,WeatherDisplay:10.37,2013-03-09 00:40:00,
2013-03-08 18:45:00,51.2,36.9,30.03,West,269,2.0,2.0,58,0.00,CLR,,0.00,WeatherDisplay:10.37,2013-03-09 00:45:00,
2013-03-08 18:50:00,51.1,37.3,30.03,WSW,241,0.0,4.0,59,0.00,,,0.00,WeatherDisplay:10.37,2013-03-09 00:50:00,
2013-03-08 18:55:00,51.1,37.3,30.03,WSW,244,0.0,4.0,59,0.00,,,0.00,WeatherDisplay:10.37,2013-03-09 00:55:00,
2013-03-08 19:00:00,51.1,37.3,30.03,NNE,25,3.5,3.5,59,0.00,,,0.00,WeatherDisplay:10.37,2013-03-09 01:00:00,
2013-03-08 19:05:00,51.2,37.4,30.03,South,175,2.3,2.3,59,0.00,,,0.00,WeatherDisplay:10.37,2013-03-09 01:05:00,
2013-03-08 19:10:00,51.2,37.4,30.03,NNE,17,1.1,0.0,59,0.00,,,0.00,WeatherDisplay:10.37,2013-03-09 01:10:00,
2013-03-08 19:15:00,51.2,37.4,30.04,WNW,291,0.0,3.0,59,0.00,,,0.00,WeatherDisplay:10.37,2013-03-09 01:15:00,
2013-03-08 19:20:00,51.3,37.4,30.04,WNW,295,1.0,5.0,59,0.00,,,0.00,WeatherDisplay:10.37,2013-03-09 01:20:00,
2013-03-08 19:25:00,51.4,38.4,30.03,West,270,4.6,4.6,61,0.00,,,0.00,WeatherDisplay:10.37,2013-03-09 01:25:00,
2013-03-08 19:30:00,51.4,38.4,30.03,SSW,205,4.0,4.0,61,0.00,,,0.00,WeatherDisplay:10.37,2013-03-09 01:30:00,
2013-03-08 19:35:00,51.4,38.4,30.03,WSW,255,1.0,3.0,61,0.00,,,0.00,WeatherDisplay:10.37,2013-03-09 01:35:00,
2013-03-08 19:40:00,51.4,38.8,30.03,NNE,28,3.5,3.5,62,0.00,,,0.00,WeatherDisplay:10.37,2013-03-09 01:40:00,
2013-03-08 19:45:00,51.4,38.4,30.02,WSW,247,3.5,3.5,61,0.00,,,0.00,WeatherDisplay:10.37,2013-03-09 01:45:00,
2013-03-08 19:50:00,51.5,38.1,30.02,North,351,1.1,1.1,60,0.00,,,0.00,WeatherDisplay:10.37,2013-03-09 01:50:00,
2013-03-08 19:55:00,51.5,38.1,30.02,South,191,3.5,3.5,60,0.00,,,0.00,WeatherDisplay:10.37,2013-03-09 01:55:00,
2013-03-08 20:00:00,51.5,37.6,30.02,SW,220,3.5,3.5,59,0.00,,,0.00,WeatherDisplay:10.37,2013-03-09 02:00:00,
2013-03-08 20:05:00,51.4,37.5,30.02,SSE,168,2.3,2.3,59,0.00,,,0.00,WeatherDisplay:10.37,2013-03-09 02:05:00,
2013-03-08 20:10:00,51.4,37.5,30.02,SW,227,1.0,5.0,59,0.00,,,0.00,WeatherDisplay:10.37,2013-03-09 02:10:00,
2013-03-08 20:15:00,51.4,37.5,30.02,WSW,253,3.5,3.5,59,0.00,,,0.00,WeatherDisplay:10.37,2013-03-09 02:15:00,
2013-03-08 20:20:00,51.4,37.5,30.02,WNW,284,1.0,6.0,59,0.00,,,0.00,WeatherDisplay:10.37,2013-03-09 02:20:00,
2013-03-08 20:25:00,51.4,37.5,30.02,NE,48,1.1,1.1,59,0.00,,,0.00,WeatherDisplay:10.37,2013-03-09 02:25:00,
2013-03-08 20:30:00,51.4,37.5,30.02,WSW,258,1.0,4.0,59,0.00,,,0.00,WeatherDisplay:10.37,2013-03-09 02:30:00,
2013-03-08 20:35:00,51.3,37.9,30.02,WSW,248,1.0,4.0,60,0.00,,,0.00,WeatherDisplay:10.37,2013-03-09 02:35:00,
2013-03-08 20:40:00,51.2,38.2,30.02,NNE,26,5.8,5.8,61,0.00,,,0.00,WeatherDisplay:10.37,2013-03-09 02:40:00,
2013-03-08 20:45:00,51.0,38.0,30.02,WSW,240,1.0,4.0,61,0.00,,,0.00,WeatherDisplay:10.37,2013-03-09 02:45:00,
2013-03-08 20:50:00,50.8,39.1,30.02,WSW,254,3.5,3.5,64,0.00,,,0.00,WeatherDisplay:10.37,2013-03-09 02:50:00,
2013-03-08 20:55:00,50.5,39.2,30.02,SW,216,1.0,4.0,65,0.00,,,0.00,WeatherDisplay:10.37,2013-03-09 02:55:00,
2013-03-08 21:00:00,50.2,39.3,30.02,West,280,3.5,3.5,66,0.00,,,0.00,WeatherDisplay:10.37,2013-03-09 03:00:00,
2013-03-08 21:05:00,50.0,39.5,30.02,WSW,242,3.5,3.5,67,0.00,,,0.00,WeatherDisplay:10.37,2013-03-09 03:05:00,
2013-03-08 21:10:00,49.9,39.0,30.02,South,189,3.5,3.5,66,0.00,,,0.00,WeatherDisplay:10.37,2013-03-09 03:10:00,
2013-03-08 21:15:00,49.9,39.0,30.02,SW,233,3.5,3.5,66,0.00,,,0.00,WeatherDisplay:10.37,2013-03-09 03:15:00,
2013-03-08 21:20:00,49.9,38.6,30.02,NW,315,3.5,3.5,65,0.00,,,0.00,WeatherDisplay:10.37,2013-03-09 03:20:00,
2013-03-08 21:25:00,49.9,39.0,30.02,SW,232,0.0,6.0,66,0.00,,,0.00,WeatherDisplay:10.37,2013-03-09 03:25:00,
2013-03-08 21:30:00,49.9,38.6,30.02,SW,236,2.3,2.3,65,0.00,,,0.00,WeatherDisplay:10.37,2013-03-09 03:30:00,
2013-03-08 21:35:00,50.0,38.7,30.01,WSW,250,0.0,2.0,65,0.00,,,0.00,WeatherDisplay:10.37,2013-03-09 03:35:00,
2013-03-08 21:40:00,50.1,38.8,30.01,SSW,202,2.3,2.3,65,0.00,,,0.00,WeatherDisplay:10.37,2013-03-09 03:40:00,
2013-03-08 21:45:00,50.2,38.9,30.01,West,277,3.5,3.5,65,0.00,,,0.00,WeatherDisplay:10.37,2013-03-09 03:45:00,
2013-03-08 21:50:00,50.3,38.6,30.01,West,271,0.0,1.0,64,0.00,,,0.00,WeatherDisplay:10.37,2013-03-09 03:50:00,
2013-03-08 21:55:00,50.4,38.7,30.01,WSW,256,0.0,3.0,64,0.00,,,0.00,WeatherDisplay:10.37,2013-03-09 03:55:00,
2013-03-08 22:00:00,50.5,38.4,30.01,WSW,238,5.0,5.0,63,0.00,,,0.00,WeatherDisplay:10.37,2013-03-09 04:00:00,
2013-03-08 22:05:00,50.6,38.5,30.01,WNW,285,1.0,6.0,63,0.00,,,0.00,WeatherDisplay:10.37,2013-03-09 04:05:00,
2013-03-08 22:10:00,50.6,38.5,30.01,West,274,1.0,5.0,63,0.00,,,0.00,WeatherDisplay:10.37,2013-03-09 04:10:00,
2013-03-08 22:15:00,50.7,38.1,30.00,SSW,209,4.0,4.0,62,0.00,,,0.00,WeatherDisplay:10.37,2013-03-09 04:15:00,
2013-03-08 22:20:00,50.6,38.5,30.01,WSW,239,1.0,6.0,63,0.00,,,0.00,WeatherDisplay:10.37,2013-03-09 04:20:00,
2013-03-08 22:25:00,50.6,38.5,30.01,SW,217,4.6,4.6,63,0.00,,,0.00,WeatherDisplay:10.37,2013-03-09 04:25:00,
2013-03-08 22:30:00,50.6,38.5,30.00,NW,309,2.3,2.3,63,0.00,,,0.00,WeatherDisplay:10.37,2013-03-09 04:30:00,
2013-03-08 22:35:00,50.6,38.5,30.00,West,259,1.0,4.0,63,0.00,,,0.00,WeatherDisplay:10.37,2013-03-09 04:35:00,
2013-03-08 22:40:00,50.5,38.4,30.00,West,263,3.0,3.0,63,0.00,,,0.00,WeatherDisplay:10.37,2013-03-09 04:40:00,
2013-03-08 22:45:00,50.4,38.7,29.99,SW,221,2.0,5.0,64,0.00,,,0.00,WeatherDisplay:10.37,2013-03-09 04:45:00,
2013-03-08 22:50:00,50.3,38.5,29.99,SW,221,1.0,7.0,64,0.00,,,0.00,WeatherDisplay:10.37,2013-03-09 04:50:00,
2013-03-08 22:55:00,50.1,38.8,29.99,West,272,0.0,4.0,65,0.00,,,0.00,WeatherDisplay:10.37,2013-03-09 04:55:00,
2013-03-08 23:00:00,49.9,38.6,29.99,WNW,292,3.5,3.5,65,0.00,,,0.00,WeatherDisplay:10.37,2013-03-09 05:00:00,
2013-03-08 23:05:00,49.8,38.9,29.98,WNW,288,3.5,3.5,66,0.00,,,0.00,WeatherDisplay:10.37,2013-03-09 05:05:00,
2013-03-08 23:10:00,49.6,38.7,29.99,WNW,291,4.6,4.6,66,0.00,,,0.00,WeatherDisplay:10.37,2013-03-09 05:10:00,
2013-03-08 23:15:00,49.5,39.0,29.98,WSW,248,3.5,3.5,67,0.00,,,0.00,WeatherDisplay:10.37,2013-03-09 05:15:00,
2013-03-08 23:20:00,49.4,39.3,29.98,West,267,6.9,6.9,68,0.00,,,0.00,WeatherDisplay:10.37,2013-03-09 05:20:00,
2013-03-08 23:25:00,49.2,39.5,29.98,South,175,2.3,2.3,69,0.00,,,0.00,WeatherDisplay:10.37,2013-03-09 05:25:00,
2013-03-08 23:30:00,49.0,39.3,29.97,WNW,285,3.5,3.5,69,0.00,,,0.00,WeatherDisplay:10.37,2013-03-09 05:30:00,
2013-03-08 23:35:00,49.0,39.3,29.96,SW,222,2.3,2.3,69,0.00,,,0.00,WeatherDisplay:10.37,2013-03-09 05:35:00,
2013-03-08 23:40:00,48.9,39.2,29.96,SW,224,3.5,3.5,69,0.00,,,0.00,WeatherDisplay:10.37,2013-03-09 05:40:00,
2013-03-08 23:45:00,48.8,39.1,29.96,WSW,252,8.1,8.1,69,0.00,,,0.00,WeatherDisplay:10.37,2013-03-09 05:45:00,
2013-03-08 23:50:00,48.9,39.2,29.95,SW,217,5.8,5.8,69,0.00,,,0.00,WeatherDisplay:10.37,2013-03-09 05:50:00,
2013-03-08 23:55:00,49.0,39.3,29.96,NNW,340,3.5,3.5,69,0.00,,,0.00,WeatherDisplay:10.37,2013-03-09 05:55:00,